Time;durP1;ratioP1;P1;durP2;ratioP2;P2;SDS_P1;SDS_P2;PMS_P1;PMS_P2;Temp;Humidity;BMP_temperature;BMP_pressure;BME280_temperature;BME280_humidity;BME280_pressure;Samples;Min_cycle;Max_cycle;Signal;HPM_P1;HPM_P2
2023/03/21 00:01:35;;;;;;;13.40;8.20;;;;;;;13.04;48.40;99797.06;7658053;32;37112;-82
2023/03/21 00:05:52;;;;;;;16.15;8.38;;;;;;;13.00;47.93;99791.34;7658247;32;39426;-83
2023/03/21 00:10:09;;;;;;;13.55;8.55;;;;;;;12.91;48.27;99799.38;7658366;32;40191;-83
2023/03/21 00:14:31;;;;;;;18.43;9.90;;;;;;;12.59;48.95;99791.72;7656998;32;38042;-83
2023/03/21 00:18:51;;;;;;;15.45;9.75;;;;;;;12.46;50.58;99800.56;7658572;32;36823;-83
2023/03/21 00:23:07;;;;;;;17.62;9.77;;;;;;;12.34;50.88;99800.91;7646328;32;38776;-82
2023/03/21 00:27:24;;;;;;;15.85;9.27;;;;;;;12.30;50.86;99795.19;7658116;32;40874;-83
2023/03/21 00:32:00;;;;;;;18.40;10.10;;;;;;;12.43;50.20;99790.19;7647354;32;38230;-83
2023/03/21 00:36:16;;;;;;;19.05;9.48;;;;;;;12.29;50.86;99788.09;7642716;32;36753;-78
2023/03/21 00:40:32;;;;;;;14.02;8.52;;;;;;;12.30;50.77;99788.91;7657889;32;39118;-82
2023/03/21 00:44:55;;;;;;;19.63;8.33;;;;;;;12.46;52.20;99786.91;7657238;32;39925;-84
2023/03/21 00:49:11;;;;;;;14.07;8.40;;;;;;;12.44;50.42;99776.25;7657692;32;38035;-84
2023/03/21 00:53:30;;;;;;;16.08;8.70;;;;;;;12.17;51.39;99785.69;7657864;32;37317;-82
2023/03/21 00:57:46;;;;;;;14.87;8.43;;;;;;;12.13;51.77;99778.34;7656367;32;40080;-83
2023/03/21 01:02:25;;;;;;;14.40;8.52;;;;;;;12.30;51.01;99770.59;7657326;32;40080;-83
2023/03/21 01:06:42;;;;;;;13.38;7.78;;;;;;;12.28;51.00;99767.34;7657490;32;37907;-83
2023/03/21 01:11:02;;;;;;;18.05;9.05;;;;;;;12.20;50.88;99773.41;7657716;32;36856;-82
2023/03/21 01:15:18;;;;;;;15.50;8.20;;;;;;;11.97;51.59;99781.19;7657541;32;39934;-82
2023/03/21 01:19:35;;;;;;;15.32;8.10;;;;;;;11.89;52.03;99779.00;7656284;32;39973;-83
2023/03/21 01:24:07;;;;;;;17.10;8.25;;;;;;;11.87;52.13;99781.19;7650406;32;37534;-83
2023/03/21 01:28:26;;;;;;;15.02;7.97;;;;;;;11.78;52.62;99777.41;7657436;32;37088;-82
2023/03/21 01:32:43;;;;;;;13.57;8.18;;;;;;;11.74;52.76;99776.34;7656684;32;40350;-83
2023/03/21 01:36:59;;;;;;;11.57;7.45;;;;;;;11.72;52.73;99775.81;7656951;32;39866;-83
2023/03/21 01:41:28;;;;;;;14.45;7.87;;;;;;;11.61;53.06;99773.09;7657043;32;37928;-83
2023/03/21 01:46:36;;;;;;;13.85;7.37;;;;;;;11.75;52.75;99772.50;7656462;32;37232;-83
2023/03/21 01:51:12;;;;;;;;;;;;;;;11.69;52.92;99762.69;7657388;32;39980;-83
2023/03/21 01:55:28;;;;;;;13.82;7.32;;;;;;;11.60;53.39;99765.19;7656248;32;38305;-83
2023/03/21 01:59:49;;;;;;;13.45;8.00;;;;;;;11.78;52.65;99772.78;7659430;32;38046;-83
2023/03/21 02:04:07;;;;;;;11.77;7.45;;;;;;;11.65;53.24;99768.72;7659850;32;37847;-82
2023/03/21 02:08:24;;;;;;;10.18;6.90;;;;;;;11.54;53.41;99763.56;7659858;32;40122;-83
2023/03/21 02:12:56;;;;;;;13.48;7.70;;;;;;;11.69;53.15;99762.69;7658696;32;40148;-83
2023/03/21 02:17:37;;;;;;;11.50;6.82;;;;;;;11.73;52.87;99759.13;7659062;32;38583;-83
2023/03/21 02:22:18;;;;;;;13.38;7.62;;;;;;;11.74;52.62;99759.94;7659856;32;37349;-83
2023/03/21 02:27:17;;;;;;;12.65;7.62;;;;;;;11.61;53.15;99756.72;7647818;32;40626;-83
2023/03/21 02:32:05;;;;;;;12.80;7.07;;;;;;;11.60;53.40;99760.53;7627170;32;39988;-84
2023/03/21 02:37:02;;;;;;;11.23;7.00;;;;;;;11.73;53.07;99761.88;7656900;32;38104;-83
2023/03/21 02:41:45;;;;;;;15.38;8.43;;;;;;;11.75;52.91;99750.66;7659033;32;37072;-83
2023/03/21 02:46:15;;;;;;;11.43;7.43;;;;;;;11.61;53.93;99756.72;7658768;32;40181;-83
2023/03/21 02:50:47;;;;;;;12.93;8.00;;;;;;;11.28;55.27;99753.56;7659083;32;40920;-84
2023/03/21 02:55:05;;;;;;;12.40;7.57;;;;;;;11.62;54.08;99755.66;7659103;32;37831;-82
2023/03/21 02:59:24;;;;;;;11.95;7.68;;;;;;;11.55;54.14;99765.22;7657776;32;36161;-82
2023/03/21 03:03:41;;;;;;;15.27;8.48;;;;;;;11.45;54.79;99763.31;7657889;32;39565;-83
2023/03/21 03:08:29;;;;;;;17.80;8.05;;;;;;;11.59;54.24;99764.37;7658884;32;40830;-83
2023/03/21 03:13:18;;;;;;;13.18;8.10;;;;;;;11.56;54.54;99759.47;7658915;32;37962;-83
2023/03/21 03:17:58;;;;;;;19.30;8.27;;;;;;;11.52;54.61;99761.12;7658692;32;36861;-82
2023/03/21 03:22:22;;;;;;;12.63;7.70;;;;;;;11.48;54.78;99767.44;7657860;32;39424;-83
2023/03/21 03:27:03;;;;;;;13.45;7.47;;;;;;;11.43;55.04;99754.59;7657749;32;38299;-84
2023/03/21 03:31:28;;;;;;;13.70;7.22;;;;;;;11.52;54.63;99763.88;7643231;32;37950;-83
2023/03/21 03:35:45;;;;;;;15.43;7.35;;;;;;;11.54;54.44;99761.69;7657215;32;37141;-84
2023/03/21 03:40:25;;;;;;;10.63;7.50;;;;;;;11.65;53.81;99760.53;7657581;32;39386;-84
2023/03/21 03:44:42;;;;;;;17.55;7.78;;;;;;;11.62;54.32;99761.09;7658396;32;38313;-83
2023/03/21 03:49:04;;;;;;;11.10;7.60;;;;;;;11.59;54.25;99758.09;7658200;32;37806;-83
2023/03/21 03:53:28;;;;;;;13.57;6.80;;;;;;;11.70;53.81;99758.88;7657546;32;37396;-83
2023/03/21 03:57:44;;;;;;;11.27;7.00;;;;;;;11.64;53.70;99756.19;7658214;32;40004;-83
2023/03/21 04:02:01;;;;;;;13.05;7.47;;;;;;;11.81;53.27;99741.34;7657149;32;40649;-80
2023/03/21 04:06:18;;;;;;;13.35;7.37;;;;;;;11.89;53.22;99751.69;7658185;32;36950;-82
2023/03/21 04:10:35;;;;;;;14.57;7.82;;;;;;;11.70;54.12;99745.22;7658524;32;37127;-82
2023/03/21 04:14:51;;;;;;;11.98;6.85;;;;;;;11.69;53.95;99749.03;7657273;32;39172;-83
2023/03/21 04:19:11;;;;;;;12.57;7.07;;;;;;;11.75;54.05;99734.28;7657380;32;40025;-83
2023/03/21 04:23:28;;;;;;;12.10;7.03;;;;;;;11.69;54.54;99735.38;7658268;32;38613;-82
2023/03/21 04:27:47;;;;;;;12.18;6.30;;;;;;;11.70;54.46;99731.56;7656887;32;36869;-82
2023/03/21 04:32:03;;;;;;;12.48;6.43;;;;;;;11.74;54.49;99743.56;7657737;32;38266;-82
2023/03/21 04:36:29;;;;;;;13.77;6.82;;;;;;;11.71;54.38;99739.50;7644780;32;41003;-83
2023/03/21 04:40:45;;;;;;;9.27;5.62;;;;;;;11.72;54.35;99738.38;7658054;32;38457;-83
2023/03/21 04:45:02;;;;;;;9.35;6.12;;;;;;;11.86;54.03;99737.75;7658011;32;37192;-83
2023/03/21 04:49:18;;;;;;;8.38;5.95;;;;;;;11.51;55.04;99751.31;7656913;32;39868;-82
2023/03/21 04:53:37;;;;;;;11.60;6.35;;;;;;;11.70;54.48;99745.22;7657847;32;41039;-83
2023/03/21 04:57:53;;;;;;;11.75;6.80;;;;;;;11.96;53.57;99745.94;7658159;32;36795;-83
2023/03/21 05:02:09;;;;;;;11.48;6.50;;;;;;;11.97;53.51;99739.34;7638753;32;37183;-83
2023/03/21 05:06:26;;;;;;;8.95;5.95;;;;;;;12.02;53.42;99747.53;7656030;32;39467;-83
2023/03/21 05:10:43;;;;;;;12.00;6.25;;;;;;;11.87;53.96;99751.16;7643847;32;39884;-83
2023/03/21 05:14:59;;;;;;;11.30;6.50;;;;;;;11.45;55.34;99758.72;7656062;32;36025;-83
2023/03/21 05:19:16;;;;;;;11.85;6.45;;;;;;;11.47;55.47;99755.69;7656761;32;38258;-83
2023/03/21 05:23:37;;;;;;;13.90;6.47;;;;;;;11.46;55.31;99756.78;7655587;32;39477;-83
2023/03/21 05:27:56;;;;;;;12.25;7.25;;;;;;;11.07;56.88;99751.97;7642257;32;39939;-83
2023/03/21 05:32:13;;;;;;;17.20;8.48;;;;;;;10.61;58.67;99744.66;7656641;32;37912;-83
2023/03/21 05:36:32;;;;;;;14.77;7.78;;;;;;;11.04;57.21;99747.91;7633348;32;36819;-83
2023/03/21 05:40:49;;;;;;;15.15;7.37;;;;;;;10.77;58.47;99744.66;7656830;32;39457;-82
2023/03/21 05:45:06;;;;;;;15.02;6.50;;;;;;;11.12;57.30;99746.50;7656641;32;40113;-83
2023/03/21 05:49:23;;;;;;;11.43;6.15;;;;;;;11.37;56.68;99750.28;7656374;32;38507;-82
2023/03/21 05:53:39;;;;;;;12.10;6.35;;;;;;;11.30;56.86;99752.44;7656876;32;37886;-83
2023/03/21 05:57:55;;;;;;;14.68;5.78;;;;;;;11.41;56.96;99759.53;7655592;32;39428;-83
2023/03/21 06:02:12;;;;;;;12.07;6.10;;;;;;;11.37;57.15;99762.00;7656830;32;38072;-83
2023/03/21 06:06:28;;;;;;;9.88;6.05;;;;;;;11.17;57.90;99765.59;7656151;32;37955;-81
2023/03/21 06:10:44;;;;;;;11.38;5.82;;;;;;;11.52;56.93;99763.03;7641934;32;37770;-83
2023/03/21 06:15:03;;;;;;;12.02;5.62;;;;;;;11.55;56.87;99767.94;7656053;32;40046;-83
2023/03/21 06:19:20;;;;;;;8.13;5.25;;;;;;;11.37;57.24;99777.56;7639885;32;39022;-84
2023/03/21 06:23:36;;;;;;;10.45;5.22;;;;;;;11.38;57.12;99779.19;7656301;32;37716;-83
2023/03/21 06:27:53;;;;;;;18.48;5.45;;;;;;;11.57;56.85;99784.84;7654730;32;35043;-83
2023/03/21 06:32:09;;;;;;;11.80;5.70;;;;;;;12.17;55.17;99780.22;7640452;32;39310;-84
2023/03/21 06:36:25;;;;;;;8.23;5.50;;;;;;;12.00;55.74;99780.63;7629568;32;40039;-84
2023/03/21 06:40:42;;;;;;;9.55;5.80;;;;;;;12.07;55.29;99791.22;7628869;32;38827;-84
2023/03/21 06:44:58;;;;;;;8.95;5.55;;;;;;;12.48;54.14;99784.69;7632364;32;36976;-85
2023/03/21 06:49:14;;;;;;;11.27;6.10;;;;;;;12.33;54.33;99794.63;7632699;32;39323;-84
2023/03/21 06:53:32;;;;;;;9.18;5.22;;;;;;;12.51;53.89;99779.47;7632692;32;39828;-87
2023/03/21 06:57:51;;;;;;;10.80;4.87;;;;;;;13.05;52.97;99783.09;7631319;32;38501;-85
2023/03/21 07:02:12;;;;;;;10.93;5.28;;;;;;;13.40;51.29;99781.16;7632970;32;37006;-84
2023/03/21 07:06:29;;;;;;;6.95;4.68;;;;;;;13.71;50.88;99783.50;7633283;32;40172;-85
2023/03/21 07:10:46;;;;;;;14.38;5.47;;;;;;;12.68;52.16;99789.19;7633286;32;39932;-85
2023/03/21 07:15:03;;;;;;;8.57;5.10;;;;;;;12.91;52.05;99790.34;7633404;32;37825;-86
2023/03/21 07:19:19;;;;;;;10.23;5.30;;;;;;;12.28;54.06;99797.41;7633225;32;37163;-87
2023/03/21 07:23:37;;;;;;;9.00;5.22;;;;;;;12.07;54.05;99813.06;7632999;32;39378;-85
2023/03/21 07:27:53;;;;;;;7.85;4.90;;;;;;;12.32;53.89;99803.13;7643466;32;40727;-83
2023/03/21 07:32:10;;;;;;;9.18;5.32;;;;;;;12.33;53.70;99813.78;7643977;32;37992;-87
2023/03/21 07:36:27;;;;;;;9.18;5.65;;;;;;;12.55;53.30;99807.84;7632950;32;37668;-83
2023/03/21 07:40:44;;;;;;;10.02;5.30;;;;;;;12.54;52.99;99805.44;7633125;32;39423;-80
2023/03/21 07:45:00;;;;;;;9.73;5.28;;;;;;;12.53;52.89;99812.00;7632477;32;39766;-81
2023/03/21 07:49:17;;;;;;;8.60;5.57;;;;;;;12.27;54.11;99817.63;7632617;32;38572;-84
2023/03/21 07:53:33;;;;;;;9.77;5.72;;;;;;;12.14;54.33;99819.06;7631826;32;37138;-82
2023/03/21 07:57:50;;;;;;;9.07;5.62;;;;;;;12.40;53.51;99811.53;7632518;32;40050;-84
2023/03/21 08:02:08;;;;;;;9.02;5.70;;;;;;;12.84;52.79;99815.31;7632628;32;39721;-84
2023/03/21 08:06:27;;;;;;;11.55;6.18;;;;;;;12.65;52.91;99811.63;7619216;32;436684;-84
2023/03/21 08:10:44;;;;;;;9.52;5.70;;;;;;;12.59;52.52;99808.13;7632704;32;37398;-84
2023/03/21 08:15:00;;;;;;;8.52;5.53;;;;;;;12.99;52.50;99806.16;7632198;32;40171;-84
2023/03/21 08:19:19;;;;;;;10.45;6.05;;;;;;;12.65;52.48;99806.97;7643660;32;39659;-83
2023/03/21 08:23:35;;;;;;;9.75;5.68;;;;;;;13.19;51.85;99799.66;7632108;32;37941;-85
2023/03/21 08:27:52;;;;;;;10.88;5.78;;;;;;;13.49;51.12;99804.03;7632293;32;37729;-85
2023/03/21 08:32:09;;;;;;;9.65;5.50;;;;;;;13.40;50.78;99811.28;7653420;32;37885;-74
2023/03/21 08:36:29;;;;;;;9.80;5.55;;;;;;;13.47;50.57;99805.44;7658474;32;39987;-83
2023/03/21 08:40:45;;;;;;;10.23;5.50;;;;;;;13.61;50.69;99809.13;7657075;32;37839;-83
2023/03/21 08:45:01;;;;;;;13.62;6.03;;;;;;;13.49;51.10;99811.47;7658366;32;37901;-83
2023/03/21 08:49:18;;;;;;;10.35;5.90;;;;;;;13.86;51.20;99805.25;7658079;32;40217;-84
2023/03/21 08:53:34;;;;;;;10.90;5.90;;;;;;;13.60;52.02;99806.69;7657319;32;39980;-83
2023/03/21 08:57:50;;;;;;;9.73;6.25;;;;;;;14.51;50.12;99801.06;7657859;32;38750;-84
2023/03/21 09:02:12;;;;;;;9.63;6.00;;;;;;;13.96;49.88;99804.31;7658010;32;36943;-84
2023/03/21 09:06:29;;;;;;;12.95;6.62;;;;;;;13.89;50.42;99803.84;7657184;32;39245;-81
2023/03/21 09:10:45;;;;;;;9.60;5.62;;;;;;;14.19;50.18;99802.63;7658093;32;39900;-82
2023/03/21 09:15:03;;;;;;;9.27;6.15;;;;;;;14.10;50.09;99798.91;7657923;32;38026;-82
2023/03/21 09:19:20;;;;;;;11.10;6.12;;;;;;;14.58;49.59;99804.28;7657104;32;37356;-73
2023/03/21 09:23:40;;;;;;;10.77;6.22;;;;;;;14.56;48.76;99798.25;7657767;32;39988;-81
2023/03/21 09:27:57;;;;;;;9.70;6.22;;;;;;;14.17;50.13;99791.12;7657421;32;40809;-86
2023/03/21 09:32:13;;;;;;;10.77;6.07;;;;;;;15.12;48.72;99777.31;7655061;32;37495;-84
2023/03/21 09:36:30;;;;;;;9.75;5.75;;;;;;;15.29;48.57;99784.97;7657466;32;37320;-86
2023/03/21 09:41:03;;;;;;;8.93;5.87;;;;;;;16.20;46.53;99782.59;7657544;32;40130;-86
2023/03/21 09:45:41;;;;;;;11.00;6.72;;;;;;;15.95;46.51;99777.34;7656930;32;40795;-84
2023/03/21 09:50:19;;;;;;;13.27;6.47;;;;;;;15.57;46.27;99776.72;7655114;32;38609;-85
2023/03/21 09:54:38;;;;;;;10.18;6.07;;;;;;;15.96;45.67;99772.66;7656074;32;37092;-86
2023/03/21 09:58:58;;;;;;;11.65;5.75;;;;;;;16.03;45.12;99770.31;7655919;32;40623;-85
2023/03/21 10:03:25;;;;;;;9.43;5.22;;;;;;;17.04;43.31;99759.09;7657812;32;39889;-85
2023/03/21 10:07:47;;;;;;;10.60;5.78;;;;;;;17.29;41.51;99748.53;7658710;32;37844;-86
2023/03/21 10:12:13;;;;;;;6.82;4.12;;;;;;;17.84;39.96;99751.63;7656679;32;37552;-85
2023/03/21 10:16:38;;;;;;;7.43;3.97;;;;;;;18.26;38.44;99745.69;7656484;32;40156;-85
2023/03/21 10:20:56;;;;;;;7.03;3.60;;;;;;;18.94;38.25;99739.66;7658357;32;40780;-85
2023/03/21 10:25:18;;;;;;;9.10;5.18;;;;;;;19.42;36.10;99735.72;7659989;32;37842;-85
2023/03/21 10:29:44;;;;;;;7.70;4.47;;;;;;;18.73;38.74;99737.56;7658339;32;37700;-85
2023/03/21 10:34:11;;;;;;;7.12;4.45;;;;;;;19.20;37.34;99738.75;7658842;32;38505;-86
2023/03/21 10:38:29;;;;;;;7.07;4.05;;;;;;;19.16;36.58;99743.31;7658920;32;40668;-85
2023/03/21 10:42:45;;;;;;;9.25;4.68;;;;;;;19.37;34.81;99744.22;7659354;32;38118;-86
2023/03/21 10:47:07;;;;;;;7.43;3.90;;;;;;;19.25;34.33;99731.09;7657986;32;37159;-85
2023/03/21 10:51:32;;;;;;;6.97;3.95;;;;;;;20.40;33.98;99732.81;7659390;32;40472;-86
2023/03/21 10:55:53;;;;;;;9.23;3.55;;;;;;;20.21;33.61;99733.31;7658020;32;40566;-86
2023/03/21 11:00:17;;;;;;;7.32;3.10;;;;;;;20.07;33.65;99722.50;7658421;32;37900;-75
2023/03/21 11:04:35;;;;;;;9.82;2.40;;;;;;;20.59;32.09;99720.41;7658506;32;38050;-76
2023/03/21 11:08:56;;;;;;;6.30;2.80;;;;;;;20.78;31.57;99715.22;7658288;32;39306;-75
2023/03/21 11:13:22;;;;;;;4.82;3.00;;;;;;;21.60;29.82;99707.22;7658468;32;39697;-75
2023/03/21 11:17:39;;;;;;;6.62;3.22;;;;;;;21.97;29.18;99694.09;7658975;32;38032;-74
2023/03/21 11:21:57;;;;;;;9.57;3.50;;;;;;;22.37;29.24;99684.16;7658176;32;37056;-82
2023/03/21 11:26:35;;;;;;;4.40;2.90;;;;;;;22.57;28.55;99685.09;7658906;32;40160;-86
2023/03/21 11:30:57;;;;;;;4.93;2.50;;;;;;;20.29;31.19;99690.09;7639279;32;40835;-86
2023/03/21 11:35:21;;;;;;;5.00;2.80;;;;;;;20.45;30.83;99693.03;7656936;32;37221;-85
2023/03/21 11:39:43;;;;;;;6.37;2.60;;;;;;;20.29;30.92;99683.75;7658885;32;37741;-84
2023/03/21 11:44:01;;;;;;;4.50;2.22;;;;;;;20.10;31.84;99679.50;7657740;32;39354;-85
2023/03/21 11:48:17;;;;;;;4.15;2.47;;;;;;;21.30;30.87;99666.66;7646717;32;39921;-85
2023/03/21 11:52:42;;;;;;;2.72;2.03;;;;;;;21.13;29.53;99650.28;7632656;32;37919;-84
2023/03/21 11:57:32;;;;;;;17.48;3.28;;;;;;;20.74;29.20;99645.00;7632845;32;37898;-85
2023/03/21 12:01:56;;;;;;;3.47;2.00;;;;;;;21.09;29.38;99639.03;7628350;32;40097;-83
2023/03/21 12:06:36;;;;;;;5.03;2.85;;;;;;;21.60;28.28;99635.13;7631668;32;40849;-85
2023/03/21 12:11:04;;;;;;;5.85;2.67;;;;;;;21.12;28.51;99626.47;7631537;32;38573;-84
2023/03/21 12:15:45;;;;;;;4.15;2.33;;;;;;;20.83;28.73;99619.97;7619644;32;36925;-84
2023/03/21 12:20:21;;;;;;;8.75;2.60;;;;;;;20.14;29.80;99633.41;7619745;32;39310;-84
2023/03/21 12:25:14;;;;;;;3.60;2.40;;;;;;;19.82;30.65;99633.03;7619268;32;39785;-84
2023/03/21 12:29:58;;;;;;;3.40;2.20;;;;;;;19.79;31.16;99633.69;7631253;32;37872;-82
2023/03/21 12:34:28;;;;;;;6.18;2.45;;;;;;;19.77;31.55;99622.16;7621399;32;38023;-85
2023/03/21 12:39:08;;;;;;;3.22;1.90;;;;;;;20.26;30.29;99619.63;7632456;32;39081;-84
2023/03/21 12:43:49;;;;;;;13.43;2.30;;;;;;;20.28;29.82;99616.50;7631652;32;39755;-83
2023/03/21 12:48:22;;;;;;;5.80;1.70;;;;;;;19.57;30.25;99620.97;7620067;32;37955;-85
2023/03/21 12:52:41;;;;;;;2.95;1.92;;;;;;;20.22;30.53;99596.53;7619839;32;37630;-85
2023/03/21 12:57:03;;;;;;;2.62;1.70;;;;;;;20.71;30.76;99587.53;7632294;32;40108;-84
2023/03/21 13:01:21;;;;;;;2.33;1.62;;;;;;;22.02;27.24;99587.56;7619422;32;40105;-85
2023/03/21 13:05:45;;;;;;;2.83;1.70;;;;;;;22.39;25.66;99576.31;7632031;32;36807;-85
2023/03/21 13:10:10;;;;;;;2.55;2.05;;;;;;;22.04;25.39;99572.19;7619141;32;37126;-85
2023/03/21 13:14:35;;;;;;;5.93;2.20;;;;;;;21.06;27.70;99570.47;7619679;32;39492;-85
2023/03/21 13:19:34;;;;;;;3.08;1.73;;;;;;;21.33;26.82;99573.66;7618999;32;40789;-82
2023/03/21 13:24:16;;;;;;;2.45;1.60;;;;;;;20.42;26.20;99569.94;7625834;32;38471;-83
2023/03/21 13:28:34;;;;;;;2.60;1.75;;;;;;;20.65;26.81;99552.13;7631702;32;36978;-82
2023/03/21 13:33:07;;;;;;;3.62;1.90;;;;;;;21.65;27.25;99560.78;7631540;32;40097;-83
2023/03/21 13:37:25;;;;;;;2.92;1.70;;;;;;;20.98;27.59;99549.22;7618160;32;39863;-83
2023/03/21 13:41:46;;;;;;;3.53;2.10;;;;;;;21.26;27.23;99552.06;7631417;32;37975;-84
2023/03/21 13:46:24;;;;;;;2.60;2.10;;;;;;;20.98;27.60;99550.03;7618287;32;36926;-83
2023/03/21 13:50:53;;;;;;;3.17;1.75;;;;;;;20.89;27.72;99560.44;7618701;32;40017;-83
2023/03/21 13:55:19;;;;;;;5.12;1.87;;;;;;;21.60;27.78;99560.22;7630050;32;40021;-83
2023/03/21 13:59:45;;;;;;;3.33;2.00;;;;;;;22.16;26.57;99551.06;7617849;32;37808;-83
2023/03/21 14:04:24;;;;;;;2.33;1.90;;;;;;;21.45;27.04;99539.56;7630950;32;38020;-82
2023/03/21 14:08:57;;;;;;;3.12;2.10;;;;;;;21.67;25.19;99535.47;7630839;32;39384;-83
2023/03/21 14:13:23;;;;;;;2.08;1.50;;;;;;;22.44;26.05;99535.19;7617214;32;40181;-83
2023/03/21 14:17:56;;;;;;;2.65;2.05;;;;;;;23.49;24.68;99521.75;7617803;32;38305;-84
2023/03/21 14:22:13;;;;;;;5.47;2.30;;;;;;;23.93;24.73;99524.22;7630470;32;36881;-83
2023/03/21 14:26:35;;;;;;;4.82;2.45;;;;;;;22.78;24.94;99518.94;7630309;32;39515;-84
2023/03/21 14:30:58;;;;;;;4.05;2.40;;;;;;;22.19;26.03;99523.41;7616833;32;39980;-83
2023/03/21 14:35:19;;;;;;;4.75;2.67;;;;;;;22.25;26.24;99522.00;7617373;32;38002;-85
2023/03/21 14:39:36;;;;;;;3.53;2.30;;;;;;;21.20;27.53;99518.25;7642351;32;37167;-86
2023/03/21 14:44:27;;;;;;;2.83;2.08;;;;;;;21.83;26.52;99513.31;7655816;32;39111;-87
2023/03/21 14:48:44;;;;;;;4.80;2.45;;;;;;;22.40;25.35;99512.06;7655053;32;40947;-86
2023/03/21 14:53:02;;;;;;;4.65;2.45;;;;;;;22.01;25.26;99506.28;7655514;32;37177;-86
2023/03/21 14:57:22;;;;;;;2.87;2.05;;;;;;;22.01;25.60;99506.28;7655856;32;37711;-85
2023/03/21 15:01:38;;;;;;;4.80;2.70;;;;;;;22.46;25.13;99499.53;7655014;32;39395;-84
2023/03/21 15:05:57;;;;;;;4.28;2.20;;;;;;;22.07;25.78;99510.41;7657464;32;40072;-85
2023/03/21 15:10:16;;;;;;;4.25;2.67;;;;;;;21.95;26.17;99502.16;7658482;32;37917;-85
2023/03/21 15:14:34;;;;;;;3.58;2.30;;;;;;;21.75;26.26;99499.25;7659268;32;37063;-85
2023/03/21 15:18:51;;;;;;;4.95;2.50;;;;;;;22.30;25.63;99496.75;7659237;32;39894;-86
2023/03/21 15:23:18;;;;;;;6.12;2.28;;;;;;;22.63;25.21;99503.13;7658667;32;39897;-84
2023/03/21 15:27:41;;;;;;;4.93;2.30;;;;;;;22.46;26.04;99504.28;7659119;32;37943;-85
2023/03/21 15:32:11;;;;;;;4.55;2.50;;;;;;;22.44;24.76;99499.09;7642433;32;37279;-85
2023/03/21 15:36:35;;;;;;;4.87;2.10;;;;;;;21.23;25.97;99505.66;7642718;32;39580;-86
2023/03/21 15:41:31;;;;;;;3.17;2.08;;;;;;;21.21;26.15;99494.09;7642812;32;40051;-86
2023/03/21 15:45:53;;;;;;;4.47;2.35;;;;;;;21.66;25.54;99484.75;7632519;32;38022;-85
2023/03/21 15:50:33;;;;;;;8.50;2.25;;;;;;;20.35;26.23;99494.12;7632669;32;37190;-86
2023/03/21 15:54:58;;;;;;;4.97;2.83;;;;;;;20.38;27.22;99482.37;7642146;32;38960;-85
2023/03/21 15:59:18;;;;;;;5.75;3.35;;;;;;;20.14;28.66;99495.03;7632109;32;39869;-84
2023/03/21 16:03:39;;;;;;;4.65;2.92;;;;;;;20.76;27.86;99495.09;7643147;32;38482;-85
2023/03/21 16:08:18;;;;;;;5.15;3.00;;;;;;;21.24;27.17;99498.94;7642942;32;37069;-87
2023/03/21 16:12:35;;;;;;;6.25;3.47;;;;;;;22.42;25.37;99492.28;7632085;32;39215;-85
2023/03/21 16:16:51;;;;;;;9.10;3.75;;;;;;;21.66;26.02;99490.28;7631213;32;39889;-84
2023/03/21 16:21:14;;;;;;;6.22;3.55;;;;;;;23.29;23.87;99498.69;7631977;32;38039;-86
2023/03/21 16:25:31;;;;;;;5.53;2.92;;;;;;;24.02;22.73;99498.94;7632108;32;37070;-84
2023/03/21 16:29:47;;;;;;;7.53;3.12;;;;;;;25.03;21.00;99495.84;7648812;32;39286;-85
2023/03/21 16:34:05;;;;;;;4.55;2.70;;;;;;;24.92;20.97;99492.91;7658146;32;39976;-84
2023/03/21 16:38:22;;;;;;;6.45;3.00;;;;;;;24.71;21.23;99504.50;7657720;32;38152;-85
2023/03/21 16:42:38;;;;;;;8.43;3.60;;;;;;;24.34;21.85;99499.50;7658062;32;36820;-84
2023/03/21 16:46:54;;;;;;;8.85;3.90;;;;;;;23.63;22.52;99510.12;7658154;32;39293;-85
2023/03/21 16:51:34;;;;;;;11.95;3.72;;;;;;;23.05;23.45;99521.94;7657673;32;40313;-84
2023/03/21 16:55:51;;;;;;;8.07;3.85;;;;;;;21.69;25.58;99536.72;7653575;32;38386;-84
2023/03/21 17:00:10;;;;;;;7.55;4.28;;;;;;;20.60;27.31;99540.06;7657451;32;38141;-85
2023/03/21 17:04:28;;;;;;;6.30;3.47;;;;;;;20.19;27.83;99543.81;7657545;32;39132;-84
2023/03/21 17:08:45;;;;;;;6.43;3.72;;;;;;;19.75;28.60;99548.97;7657298;32;39127;-83
2023/03/21 17:13:01;;;;;;;8.55;4.07;;;;;;;19.12;29.71;99549.75;7657489;32;37967;-85
2023/03/21 17:17:17;;;;;;;7.12;4.12;;;;;;;18.27;30.92;99554.19;7657849;32;36701;-85
2023/03/21 17:21:34;;;;;;;8.00;4.12;;;;;;;18.29;31.13;99551.91;7657535;32;39418;-82
2023/03/21 17:25:50;;;;;;;9.68;4.50;;;;;;;17.92;31.92;99562.53;7657207;32;39913;-85
2023/03/21 17:30:15;;;;;;;7.60;3.50;;;;;;;17.85;32.19;99562.19;7656963;32;37632;-83
2023/03/21 17:34:31;;;;;;;7.32;4.03;;;;;;;17.51;32.81;99561.06;7657430;32;37857;-85
2023/03/21 17:38:48;;;;;;;8.07;3.87;;;;;;;17.35;33.17;99573.69;7657144;32;39386;-84
2023/03/21 17:43:10;;;;;;;8.02;4.05;;;;;;;17.04;33.65;99571.84;7657068;32;39862;-84
2023/03/21 17:47:28;;;;;;;9.40;4.50;;;;;;;17.09;33.62;99579.94;7655765;32;37677;-85
2023/03/21 17:51:45;;;;;;;10.00;4.60;;;;;;;16.73;34.58;99580.97;7656770;32;38984;-84
2023/03/21 17:56:02;;;;;;;11.52;4.70;;;;;;;16.85;34.08;99583.13;7656840;32;40252;-85
2023/03/21 18:00:26;;;;;;;9.88;5.03;;;;;;;16.64;34.92;99585.59;7656619;32;39934;-85
2023/03/21 18:04:42;;;;;;;10.82;5.75;;;;;;;16.43;35.65;99599.91;7655238;32;37699;-84
2023/03/21 18:09:00;;;;;;;12.40;6.10;;;;;;;16.35;35.91;99592.44;7656674;32;36784;-84
2023/03/21 18:13:16;;;;;;;11.30;5.20;;;;;;;16.07;36.54;99600.00;7655155;32;40152;-84
2023/03/21 18:17:32;;;;;;;10.23;5.32;;;;;;;16.12;36.24;99603.44;7656300;32;39903;-84
2023/03/21 18:21:49;;;;;;;8.07;4.53;;;;;;;16.22;35.50;99598.81;7655922;32;38786;-84
2023/03/21 18:26:06;;;;;;;7.30;4.50;;;;;;;16.05;35.62;99605.81;7656288;32;37425;-84
2023/03/21 18:30:23;;;;;;;9.45;4.60;;;;;;;15.99;35.47;99604.34;7655589;32;39092;-84
2023/03/21 18:34:59;;;;;;;7.95;4.05;;;;;;;15.86;35.79;99616.19;7655895;32;40156;-85
2023/03/21 18:39:16;;;;;;;6.37;3.95;;;;;;;16.00;35.66;99613.41;7656856;32;38679;-85
2023/03/21 18:43:33;;;;;;;7.18;4.20;;;;;;;15.95;35.86;99625.31;7659358;32;37228;-85
2023/03/21 18:48:12;;;;;;;15.00;4.80;;;;;;;15.87;36.29;99631.59;7659008;32;40504;-83
2023/03/21 18:52:28;;;;;;;12.82;4.87;;;;;;;15.68;36.98;99629.78;7658330;32;39922;-84
2023/03/21 18:56:50;;;;;;;9.13;4.75;;;;;;;15.65;37.30;99630.38;7658150;32;37801;-86
2023/03/21 19:01:26;;;;;;;9.07;4.62;;;;;;;15.43;37.03;99631.12;7658731;32;37560;-84
2023/03/21 19:05:43;;;;;;;12.23;4.93;;;;;;;15.46;37.14;99635.22;7659341;32;39193;-85
2023/03/21 19:09:59;;;;;;;9.32;4.28;;;;;;;15.33;37.46;99637.69;7659391;32;40867;-86
2023/03/21 19:14:32;;;;;;;;;;;;;;;15.28;37.73;99645.19;7659768;32;38674;-86
2023/03/21 19:18:48;;;;;;;10.82;5.28;;;;;;;15.19;37.87;99640.44;7659643;32;36701;-86
2023/03/21 19:23:11;;;;;;;10.00;5.60;;;;;;;15.07;37.96;99647.56;7659393;32;39413;-86
2023/03/21 19:27:27;;;;;;;8.73;5.32;;;;;;;14.92;38.44;99648.66;7658922;32;41009;-86
2023/03/21 19:31:44;;;;;;;19.50;5.95;;;;;;;14.83;38.81;99654.88;7658767;32;39476;-86
2023/03/21 19:36:00;;;;;;;17.95;6.10;;;;;;;14.95;38.79;99645.31;7658873;32;37767;-86
2023/03/21 19:40:32;;;;;;;13.02;6.30;;;;;;;14.56;39.53;99650.13;7658851;32;39118;-85
2023/03/21 19:44:49;;;;;;;13.27;6.32;;;;;;;14.42;39.78;99649.28;7658741;32;40168;-85
2023/03/21 19:49:05;;;;;;;13.18;5.87;;;;;;;14.38;39.94;99648.25;7658425;32;38650;-86
2023/03/21 19:53:21;;;;;;;9.65;5.80;;;;;;;14.01;40.69;99658.16;7658612;32;37385;-86
2023/03/21 19:57:38;;;;;;;10.13;5.30;;;;;;;14.17;40.03;99659.53;7658564;32;40266;-85
2023/03/21 20:01:54;;;;;;;13.43;6.07;;;;;;;13.91;40.51;99667.34;7658475;32;39903;-85
2023/03/21 20:06:24;;;;;;;13.77;7.70;;;;;;;14.04;40.26;99658.37;7657364;32;38675;-86
2023/03/21 20:10:41;;;;;;;15.38;7.45;;;;;;;14.04;40.25;99663.88;7658213;32;37834;-86
2023/03/21 20:14:57;;;;;;;13.57;8.02;;;;;;;13.92;40.44;99669.00;7657084;32;40019;-85
2023/03/21 20:19:30;;;;;;;12.82;7.50;;;;;;;13.97;40.48;99662.59;7657627;32;40780;-85
2023/03/21 20:23:49;;;;;;;17.65;8.18;;;;;;;13.93;40.76;99669.78;7658246;32;37771;-84
2023/03/21 20:28:06;;;;;;;14.90;8.18;;;;;;;13.73;41.30;99668.16;7657634;32;38005;-84